createdAt,value
2018-05-14T00:01:51.053Z,15.40
2018-05-14T00:04:18.725Z,15.40
2018-05-14T00:06:46.386Z,15.40
2018-05-14T00:09:14.833Z,15.30
2018-05-14T00:11:42.502Z,15.30
2018-05-14T00:14:10.137Z,15.30
2018-05-14T00:16:37.807Z,15.30
2018-05-14T00:19:05.481Z,15.30
2018-05-14T00:21:33.154Z,15.30
2018-05-14T00:24:00.838Z,15.30
2018-05-14T00:26:29.241Z,15.30
2018-05-14T00:28:56.920Z,15.30
2018-05-14T00:31:24.569Z,15.30
2018-05-14T00:33:52.230Z,15.30
2018-05-14T00:36:19.889Z,15.30
2018-05-14T00:38:48.357Z,15.20
2018-05-14T00:41:16.030Z,15.20
2018-05-14T00:43:43.694Z,15.20
2018-05-14T00:46:11.379Z,15.10
2018-05-14T00:48:39.051Z,15.10
2018-05-14T00:51:06.741Z,15.10
2018-05-14T00:53:34.351Z,15.00
2018-05-14T00:56:01.995Z,15.00
2018-05-14T00:58:30.399Z,14.90
2018-05-14T01:00:58.860Z,14.90
2018-05-14T01:03:26.534Z,14.90
2018-05-14T01:05:54.180Z,14.90
2018-05-14T01:08:22.654Z,14.80
2018-05-14T01:10:50.336Z,14.80
2018-05-14T01:13:17.998Z,14.80
2018-05-14T01:15:45.639Z,14.80
2018-05-14T01:18:13.292Z,14.80
2018-05-14T01:20:40.947Z,14.70
2018-05-14T01:23:08.614Z,14.70
2018-05-14T01:25:37.044Z,14.60
2018-05-14T01:28:04.737Z,14.60
2018-05-14T01:30:32.438Z,14.60
2018-05-14T01:33:00.127Z,14.60
2018-05-14T01:35:27.803Z,14.60
2018-05-14T01:37:55.407Z,14.60
2018-05-14T01:40:23.081Z,14.60
2018-05-14T01:42:50.702Z,14.60
2018-05-14T01:45:18.368Z,14.60
2018-05-14T01:47:46.043Z,14.60
2018-05-14T01:50:13.683Z,14.60
2018-05-14T01:52:42.127Z,14.60
2018-05-14T01:55:09.777Z,14.60
2018-05-14T01:57:38.223Z,14.70
2018-05-14T02:00:05.884Z,14.70
2018-05-14T02:02:34.307Z,14.70
2018-05-14T02:05:01.989Z,14.60
2018-05-14T02:07:29.608Z,14.70
2018-05-14T02:09:57.297Z,14.70
2018-05-14T02:12:24.943Z,14.70
2018-05-14T02:14:52.597Z,14.70
2018-05-14T02:17:20.244Z,14.70
2018-05-14T02:19:47.945Z,14.70
2018-05-14T02:22:15.606Z,14.70
2018-05-14T02:24:43.250Z,14.70
2018-05-14T02:27:10.893Z,14.70
2018-05-14T02:29:38.553Z,14.70
2018-05-14T02:32:06.222Z,14.70
2018-05-14T02:34:34.622Z,14.70
2018-05-14T02:37:03.081Z,14.70
2018-05-14T02:39:30.759Z,14.60
2018-05-14T02:41:59.203Z,14.70
2018-05-14T02:44:26.881Z,14.70
2018-05-14T02:46:54.553Z,14.70
2018-05-14T02:49:22.219Z,14.70
2018-05-14T02:51:49.862Z,14.70
2018-05-14T02:54:17.460Z,14.70
2018-05-14T02:56:45.069Z,14.70
2018-05-14T02:59:14.195Z,14.70
2018-05-14T03:01:42.595Z,14.80
2018-05-14T03:04:11.037Z,14.70
2018-05-14T03:06:38.706Z,14.70
2018-05-14T03:09:06.380Z,14.70
2018-05-14T03:11:34.787Z,14.80
2018-05-14T03:14:03.202Z,14.70
2018-05-14T03:16:31.645Z,14.80
2018-05-14T03:18:59.286Z,14.80
2018-05-14T03:21:26.949Z,14.80
2018-05-14T03:23:54.586Z,14.80
2018-05-14T03:26:22.294Z,14.80
2018-05-14T03:28:49.981Z,14.80
2018-05-14T03:31:17.621Z,14.80
2018-05-14T03:33:45.303Z,14.80
2018-05-14T03:36:13.014Z,14.80
2018-05-14T03:38:41.490Z,14.80
2018-05-14T03:41:09.169Z,14.70
2018-05-14T03:43:36.830Z,14.80
2018-05-14T03:46:04.498Z,14.80
2018-05-14T03:48:32.648Z,14.80
2018-05-14T03:51:00.352Z,14.80
2018-05-14T03:53:27.987Z,14.80
2018-05-14T03:55:56.477Z,14.80
2018-05-14T04:01:42.521Z,14.80
2018-05-14T04:04:21.978Z,14.80
2018-05-14T04:06:49.560Z,14.70
2018-05-14T04:09:17.211Z,14.80
2018-05-14T04:11:45.633Z,14.80
2018-05-14T04:14:13.271Z,14.70
2018-05-14T04:16:41.002Z,14.80
2018-05-14T04:19:08.582Z,14.80
2018-05-14T04:21:36.238Z,14.70
2018-05-14T04:24:03.902Z,14.70
2018-05-14T04:26:31.505Z,14.80
2018-05-14T04:28:59.148Z,14.80
2018-05-14T04:31:27.550Z,14.80
2018-05-14T04:33:55.264Z,14.70
2018-05-14T04:36:22.950Z,14.80
2018-05-14T04:38:50.614Z,14.80
2018-05-14T04:41:18.277Z,14.80
2018-05-14T04:43:45.893Z,14.80
2018-05-14T04:46:13.584Z,14.90
2018-05-14T04:48:41.217Z,14.90
2018-05-14T04:51:08.886Z,14.90
2018-05-14T04:53:36.492Z,15.00
2018-05-14T04:56:04.165Z,15.00
2018-05-14T04:58:31.818Z,15.00
2018-05-14T05:00:59.467Z,15.10
2018-05-14T05:03:27.223Z,15.10
2018-05-14T05:05:54.928Z,15.10
2018-05-14T05:08:22.674Z,15.10
2018-05-14T05:10:50.363Z,15.10
2018-05-14T05:13:18.139Z,15.10
2018-05-14T05:15:45.819Z,15.10
2018-05-14T05:18:13.563Z,15.10
2018-05-14T05:20:41.272Z,15.20
2018-05-14T05:23:09.004Z,15.20
2018-05-14T05:25:36.708Z,15.20
2018-05-14T05:28:04.426Z,15.20
2018-05-14T05:30:32.184Z,15.30
2018-05-14T05:32:59.899Z,15.30
2018-05-14T05:38:21.065Z,15.30
2018-05-14T05:40:48.850Z,15.30
2018-05-14T05:43:16.810Z,15.40
2018-05-14T05:45:45.724Z,15.40
2018-05-14T05:48:15.165Z,15.40
2018-05-14T05:50:43.203Z,15.40
2018-05-14T05:53:11.751Z,15.50
2018-05-14T05:55:40.224Z,15.50
2018-05-14T05:58:07.974Z,15.50
2018-05-14T06:03:34.027Z,15.50
2018-05-14T06:06:02.780Z,15.60
2018-05-14T06:08:30.870Z,15.60
2018-05-14T06:10:58.980Z,15.60
2018-05-14T06:13:27.077Z,15.60
2018-05-14T06:15:55.018Z,15.60
2018-05-14T06:18:23.071Z,15.60
2018-05-14T06:20:51.002Z,15.60
2018-05-14T06:23:19.031Z,15.70
2018-05-14T06:25:46.999Z,15.60
2018-05-14T06:28:15.790Z,15.70
2018-05-14T06:30:44.504Z,15.70
2018-05-14T06:33:12.466Z,15.70
2018-05-14T06:35:40.577Z,15.80
2018-05-14T06:38:09.238Z,15.80
2018-05-14T06:40:37.208Z,15.80
2018-05-14T06:43:05.142Z,15.90
2018-05-14T06:45:33.183Z,15.90
2018-05-14T06:48:01.141Z,15.90
2018-05-14T06:50:29.257Z,15.90
2018-05-14T06:52:57.277Z,15.90
2018-05-14T06:55:25.229Z,16.00
2018-05-14T06:57:53.980Z,16.10
2018-05-14T07:00:21.913Z,16.00
2018-05-14T07:02:49.930Z,16.10
2018-05-14T07:05:17.878Z,16.20
2018-05-14T07:07:46.162Z,16.20
2018-05-14T07:10:14.153Z,16.20
2018-05-14T07:12:42.864Z,16.30
2018-05-14T07:15:10.934Z,16.20
2018-05-14T07:17:38.921Z,16.30
2018-05-14T07:20:07.721Z,16.30
2018-05-14T07:22:35.699Z,16.30
2018-05-14T07:25:07.080Z,16.30
2018-05-14T07:27:35.063Z,16.30
2018-05-14T07:30:03.095Z,16.20
2018-05-14T07:32:31.091Z,16.20
2018-05-14T07:34:59.140Z,16.20
2018-05-14T07:37:27.178Z,16.20
2018-05-14T07:39:55.145Z,16.20
2018-05-14T07:42:23.175Z,16.20
2018-05-14T07:44:51.132Z,16.20
2018-05-14T07:47:20.041Z,16.20
2018-05-14T07:49:47.933Z,16.10
2018-05-14T07:52:15.985Z,16.20
2018-05-14T07:54:44.031Z,16.20
2018-05-14T07:57:12.055Z,16.20
2018-05-14T07:59:40.072Z,16.30
2018-05-14T08:02:08.828Z,16.30
2018-05-14T08:04:37.615Z,16.40
2018-05-14T08:07:05.578Z,16.40
2018-05-14T08:09:33.563Z,16.50
2018-05-14T08:12:01.599Z,16.50
2018-05-14T08:14:36.644Z,16.60
2018-05-14T08:17:04.762Z,16.60
2018-05-14T08:19:33.037Z,16.70
2018-05-14T08:22:11.781Z,16.70
2018-05-14T08:24:41.030Z,16.80
2018-05-14T08:27:09.158Z,16.80
2018-05-14T08:29:37.125Z,16.90
2018-05-14T08:32:05.135Z,17.00
2018-05-14T08:34:33.257Z,17.00
2018-05-14T08:37:01.379Z,17.10
2018-05-14T08:39:30.337Z,17.30
2018-05-14T08:41:58.434Z,17.20
2018-05-14T08:44:26.526Z,17.30
2018-05-14T08:46:55.417Z,17.40
2018-05-14T08:49:23.506Z,17.40
2018-05-14T08:51:52.140Z,17.60
2018-05-14T08:54:19.990Z,17.60
2018-05-14T08:56:47.947Z,17.70
2018-05-14T08:59:16.749Z,17.80
2018-05-14T09:01:44.657Z,17.90
2018-05-14T09:04:12.354Z,18.00
2018-05-14T09:06:40.098Z,18.10
2018-05-14T09:09:07.857Z,18.20
2018-05-14T09:11:35.569Z,18.30
2018-05-14T09:14:03.332Z,18.30
2018-05-14T09:16:31.095Z,18.40
2018-05-14T09:21:52.799Z,18.50
2018-05-14T09:24:20.566Z,18.60
2018-05-14T09:26:48.250Z,18.60
2018-05-14T09:29:15.979Z,18.70
2018-05-14T09:31:43.697Z,18.70
2018-05-14T09:34:11.392Z,18.80
2018-05-14T09:36:39.121Z,18.80
2018-05-14T09:39:06.865Z,19.00
2018-05-14T09:41:35.331Z,19.10
2018-05-14T09:44:03.055Z,19.10
2018-05-14T09:46:31.532Z,19.30
2018-05-14T09:48:59.276Z,19.30
2018-05-14T09:51:26.948Z,19.30
2018-05-14T09:53:54.888Z,19.40
2018-05-14T09:56:22.881Z,19.50
2018-05-14T09:59:01.777Z,19.70
2018-05-14T10:01:29.786Z,19.80
2018-05-14T10:03:57.766Z,20.00
2018-05-14T10:06:26.568Z,20.30
2018-05-14T10:08:54.504Z,20.30
2018-05-14T10:11:22.264Z,20.50
2018-05-14T10:13:49.934Z,20.60
2018-05-14T10:16:17.719Z,20.70
2018-05-14T10:18:45.436Z,20.80
2018-05-14T10:21:13.960Z,21.10
2018-05-14T10:23:41.713Z,21.00
2018-05-14T10:26:09.646Z,21.20
2018-05-14T10:28:37.355Z,21.30
2018-05-14T10:31:05.038Z,21.30
2018-05-14T10:33:32.782Z,21.30
2018-05-14T10:36:00.451Z,21.20
2018-05-14T10:38:28.191Z,21.20
2018-05-14T10:40:55.899Z,21.10
2018-05-14T10:43:23.606Z,21.10
2018-05-14T10:45:51.319Z,21.00
2018-05-14T10:48:19.027Z,21.00
2018-05-14T10:50:46.756Z,21.00
2018-05-14T10:53:14.464Z,21.10
2018-05-14T10:55:42.178Z,21.10
2018-05-14T10:58:09.860Z,21.10
2018-05-14T11:00:37.629Z,21.10
2018-05-14T11:03:05.348Z,21.10
2018-05-14T11:05:33.834Z,21.00
2018-05-14T11:08:01.572Z,21.00
2018-05-14T11:10:29.368Z,21.00
2018-05-14T11:12:57.063Z,21.10
2018-05-14T11:15:24.730Z,21.10
2018-05-14T11:17:52.528Z,21.10
2018-05-14T11:20:20.976Z,21.30
2018-05-14T11:22:48.726Z,21.30
2018-05-14T11:25:16.448Z,21.50
2018-05-14T11:27:44.231Z,21.70
2018-05-14T11:30:11.998Z,21.80
2018-05-14T11:32:39.708Z,22.00
2018-05-14T11:35:07.443Z,22.10
2018-05-14T11:37:35.128Z,22.20
2018-05-14T11:40:02.876Z,22.30
2018-05-14T11:42:30.576Z,22.40
2018-05-14T11:44:58.332Z,22.50
2018-05-14T11:47:26.056Z,22.40
2018-05-14T11:49:53.789Z,22.40
2018-05-14T11:52:22.273Z,22.60
2018-05-14T11:54:49.984Z,22.50
2018-05-14T11:57:18.588Z,22.60
2018-05-14T11:59:47.056Z,22.60
2018-05-14T12:08:20.319Z,22.40
2018-05-14T12:10:49.444Z,22.40
2018-05-14T12:13:17.176Z,22.30
2018-05-14T12:15:44.931Z,22.20
2018-05-14T12:18:13.429Z,22.10
2018-05-14T12:20:41.192Z,22.10
2018-05-14T12:23:09.707Z,22.00
2018-05-14T12:25:52.609Z,22.00
2018-05-14T12:28:20.963Z,22.10
2018-05-14T12:30:48.751Z,22.20
2018-05-14T12:33:18.792Z,22.40
2018-05-14T12:35:47.483Z,22.50
2018-05-14T12:38:15.215Z,22.60
2018-05-14T12:40:42.885Z,22.70
2018-05-14T12:43:10.891Z,22.70
2018-05-14T12:45:38.588Z,22.70
2018-05-14T12:48:06.294Z,22.60
2018-05-14T12:50:34.163Z,22.50
2018-05-14T12:53:02.017Z,22.50
2018-05-14T12:55:29.739Z,22.50
2018-05-14T12:57:57.440Z,22.70
2018-05-14T13:00:25.161Z,22.80
2018-05-14T13:02:52.851Z,23.10
2018-05-14T13:05:20.599Z,23.20
2018-05-14T13:07:48.344Z,23.20
2018-05-14T13:10:16.813Z,23.20
2018-05-14T13:12:44.536Z,23.20
2018-05-14T13:15:12.992Z,23.10
2018-05-14T13:17:40.744Z,23.10
2018-05-14T13:20:08.515Z,23.00
2018-05-14T13:22:37.041Z,22.80
2018-05-14T13:25:05.547Z,22.80
2018-05-14T13:27:33.291Z,22.80
2018-05-14T13:30:01.103Z,22.80
2018-05-14T13:32:30.808Z,22.80
2018-05-14T13:34:58.856Z,22.90
2018-05-14T13:37:26.613Z,22.90
2018-05-14T13:39:54.330Z,22.90
2018-05-14T13:42:22.840Z,22.80
2018-05-14T13:44:51.316Z,22.70
2018-05-14T13:47:19.056Z,22.70
2018-05-14T13:49:46.808Z,22.70
2018-05-14T13:52:15.357Z,22.60
2018-05-14T13:54:43.095Z,22.60
2018-05-14T13:57:10.800Z,22.50
2018-05-14T13:59:39.283Z,22.40
2018-05-14T14:02:07.012Z,22.40
2018-05-14T14:04:35.465Z,22.50
2018-05-14T14:07:03.440Z,22.50
2018-05-14T14:09:31.166Z,22.50
2018-05-14T14:11:58.903Z,22.50
2018-05-14T14:14:26.669Z,22.60
2018-05-14T14:16:54.397Z,22.70
2018-05-14T14:19:22.155Z,23.00
2018-05-14T14:21:50.619Z,23.30
2018-05-14T14:24:18.398Z,23.20
2018-05-14T14:26:46.111Z,23.40
2018-05-14T14:29:13.816Z,23.40
2018-05-14T14:31:42.255Z,23.60
2018-05-14T14:34:10.012Z,23.60
2018-05-14T14:36:37.800Z,23.60
2018-05-14T14:39:06.271Z,23.70
2018-05-14T14:41:34.007Z,23.70
2018-05-14T14:44:01.755Z,23.70
2018-05-14T14:46:29.523Z,23.60
2018-05-14T14:48:57.243Z,23.50
2018-05-14T14:51:25.006Z,23.40
2018-05-14T14:53:52.675Z,23.30
2018-05-14T14:56:20.306Z,23.30
2018-05-14T14:58:47.967Z,23.30
2018-05-14T15:01:15.589Z,23.20
2018-05-14T15:03:44.006Z,23.00
2018-05-14T15:06:12.397Z,22.90
2018-05-14T15:08:40.850Z,22.70
2018-05-14T15:11:08.469Z,22.70
2018-05-14T15:13:36.121Z,22.60
2018-05-14T15:16:03.790Z,22.50
2018-05-14T15:18:32.182Z,22.40
2018-05-14T15:21:00.950Z,22.40
2018-05-14T15:23:28.566Z,22.40
2018-05-14T15:25:56.216Z,22.30
2018-05-14T15:28:23.835Z,22.30
2018-05-14T15:30:51.487Z,22.10
2018-05-14T15:33:19.107Z,22.10
2018-05-14T15:35:46.774Z,22.00
2018-05-14T15:38:14.430Z,21.90
2018-05-14T15:40:42.075Z,21.80
2018-05-14T15:43:09.743Z,21.70
2018-05-14T15:45:37.362Z,21.60
2018-05-14T15:48:05.811Z,21.30
2018-05-14T15:50:33.427Z,21.30
2018-05-14T15:53:01.074Z,21.30
2018-05-14T15:55:28.723Z,21.30
2018-05-14T15:57:57.142Z,21.20
2018-05-14T16:00:24.953Z,21.20
2018-05-14T16:02:52.618Z,21.20
2018-05-14T16:05:21.010Z,21.20
2018-05-14T16:07:49.432Z,21.10
2018-05-14T16:10:21.100Z,21.10
2018-05-14T16:12:48.843Z,21.10
2018-05-14T16:15:16.495Z,21.10
2018-05-14T16:17:44.883Z,21.20
2018-05-14T16:20:13.310Z,21.20
2018-05-14T16:22:41.703Z,21.10
2018-05-14T16:25:13.022Z,21.10
2018-05-14T16:27:40.650Z,21.10
2018-05-14T16:30:08.329Z,21.10
2018-05-14T16:32:36.007Z,21.20
2018-05-14T16:35:03.700Z,21.20
2018-05-14T16:37:31.351Z,21.20
2018-05-14T16:39:58.966Z,21.20
2018-05-14T16:42:26.903Z,21.20
2018-05-14T16:44:55.298Z,21.20
2018-05-14T16:47:23.859Z,21.20
2018-05-14T16:49:51.507Z,21.20
2018-05-14T17:01:20.123Z,21.20
2018-05-14T17:03:48.526Z,21.20
2018-05-14T17:06:16.991Z,21.10
2018-05-14T17:08:45.402Z,21.10
2018-05-14T17:11:13.915Z,21.10
2018-05-14T17:13:42.321Z,21.10
2018-05-14T17:16:10.750Z,21.10
2018-05-14T17:18:38.404Z,21.00
2018-05-14T17:21:06.363Z,21.00
2018-05-14T17:23:34.839Z,21.00
2018-05-14T17:26:02.463Z,21.00
2018-05-14T17:28:30.122Z,20.90
2018-05-14T17:30:57.796Z,20.80
2018-05-14T17:33:25.466Z,20.80
2018-05-14T17:35:53.093Z,20.70
2018-05-14T17:38:20.746Z,20.60
2018-05-14T17:40:48.393Z,20.60
2018-05-14T17:43:16.471Z,20.50
2018-05-14T17:45:44.891Z,20.40
2018-05-14T17:48:12.815Z,20.40
2018-05-14T17:50:41.240Z,20.20
2018-05-14T17:53:08.863Z,20.20
2018-05-14T17:55:36.695Z,20.20
2018-05-14T17:58:05.239Z,20.10
2018-05-14T18:00:32.975Z,20.00
2018-05-14T18:03:00.638Z,20.00
2018-05-14T18:05:29.031Z,19.90
2018-05-14T18:07:58.151Z,19.90
2018-05-14T18:10:32.042Z,19.80
2018-05-14T18:12:59.824Z,19.80
2018-05-14T18:15:28.182Z,19.70
2018-05-14T18:17:56.993Z,19.70
2018-05-14T18:20:25.586Z,19.70
2018-05-14T18:22:54.254Z,19.60
2018-05-14T18:25:28.356Z,19.60
2018-05-14T18:28:11.949Z,19.50
2018-05-14T18:30:40.377Z,19.50
2018-05-14T18:33:11.607Z,19.30
2018-05-14T18:35:44.218Z,19.30
2018-05-14T18:38:11.877Z,19.10
2018-05-14T18:40:39.504Z,18.90
2018-05-14T18:43:07.322Z,18.60
2018-05-14T18:45:35.755Z,17.80
2018-05-14T18:48:03.797Z,17.70
2018-05-14T18:50:31.443Z,17.40
2018-05-14T18:52:59.067Z,17.10
2018-05-14T18:55:26.777Z,16.80
2018-05-14T18:57:54.473Z,16.60
2018-05-14T19:09:15.072Z,16.10
2018-05-14T19:11:49.395Z,15.90
2018-05-14T19:14:17.085Z,15.90
2018-05-14T19:16:50.595Z,15.90
2018-05-14T19:19:18.287Z,15.80
2018-05-14T19:21:45.907Z,15.70
2018-05-14T19:24:13.571Z,15.70
2018-05-14T19:26:41.197Z,15.60
2018-05-14T19:29:16.473Z,15.60
2018-05-14T19:31:44.993Z,15.50
2018-05-14T19:34:19.648Z,15.40
2018-05-14T19:36:48.873Z,15.40
2018-05-14T19:42:25.047Z,15.30
2018-05-14T19:44:52.706Z,15.30
2018-05-14T19:47:21.190Z,15.20
2018-05-14T19:49:49.023Z,15.20
2018-05-14T19:52:16.675Z,15.20
2018-05-14T19:54:44.295Z,15.20
2018-05-14T19:57:11.953Z,15.20
2018-05-14T19:59:41.363Z,15.20
2018-05-14T20:02:08.982Z,15.10
2018-05-14T20:04:37.394Z,15.10
2018-05-14T20:07:05.786Z,15.10
2018-05-14T20:09:34.199Z,15.10
2018-05-14T20:12:02.660Z,15.10
2018-05-14T20:14:30.273Z,15.10
2018-05-14T20:16:58.786Z,15.00
2018-05-14T20:19:26.455Z,15.00
2018-05-14T20:21:54.183Z,15.00
2018-05-14T20:24:21.838Z,15.00
2018-05-14T20:26:49.471Z,15.00
2018-05-14T20:29:17.132Z,15.00
2018-05-14T20:31:54.531Z,15.00
2018-05-14T20:34:22.190Z,15.00
2018-05-14T20:36:50.659Z,14.90
2018-05-14T20:39:18.331Z,14.90
2018-05-14T20:41:45.987Z,14.90
2018-05-14T20:44:13.818Z,14.90
2018-05-14T20:46:41.535Z,14.80
2018-05-14T20:49:09.223Z,14.80
2018-05-14T20:51:37.618Z,14.80
2018-05-14T20:54:05.282Z,14.70
2018-05-14T20:56:32.897Z,14.70
2018-05-14T20:59:00.700Z,14.70
2018-05-14T21:01:29.126Z,14.60
2018-05-14T21:03:56.746Z,14.60
2018-05-14T21:06:24.406Z,14.60
2018-05-14T21:08:52.047Z,14.60
2018-05-14T21:11:19.735Z,14.60
2018-05-14T21:13:47.543Z,14.50
2018-05-14T21:16:15.931Z,14.50
2018-05-14T21:18:43.590Z,14.40
2018-05-14T21:21:11.215Z,14.50
2018-05-14T21:23:39.974Z,14.40
2018-05-14T21:26:07.638Z,14.40
2018-05-14T21:28:35.258Z,14.40
2018-05-14T21:31:02.902Z,14.30
2018-05-14T21:33:30.515Z,14.30
2018-05-14T21:35:58.162Z,14.30
2018-05-14T21:38:26.584Z,14.20
2018-05-14T21:40:54.209Z,14.20
2018-05-14T21:43:21.867Z,14.20
2018-05-14T21:45:49.483Z,14.20
2018-05-14T21:48:17.143Z,14.10
2018-05-14T21:50:44.793Z,14.10
2018-05-14T21:53:12.419Z,14.10
2018-05-14T21:55:40.081Z,14.00
2018-05-14T21:58:07.698Z,14.00
2018-05-14T22:00:35.358Z,13.90
2018-05-14T22:03:03.007Z,13.90
2018-05-14T22:05:30.654Z,14.00
2018-05-14T22:14:01.105Z,13.80
2018-05-14T22:16:28.735Z,13.80
2018-05-14T22:18:56.462Z,13.80
2018-05-14T22:21:24.122Z,13.80
2018-05-14T22:23:51.734Z,13.70
2018-05-14T22:26:19.363Z,13.70
2018-05-14T22:28:47.015Z,13.70
2018-05-14T22:31:14.666Z,13.60
2018-05-14T22:33:42.274Z,13.60
2018-05-14T22:36:09.923Z,13.60
2018-05-14T22:38:37.536Z,13.60
2018-05-14T22:41:05.962Z,13.50
2018-05-14T22:43:33.619Z,13.50
2018-05-14T22:46:02.008Z,13.40
2018-05-14T22:48:29.662Z,13.40
2018-05-14T22:50:57.273Z,13.40
2018-05-14T22:53:24.928Z,13.40
2018-05-14T22:55:52.591Z,13.30
2018-05-14T22:58:20.214Z,13.30
2018-05-14T23:00:47.911Z,13.20
2018-05-14T23:03:15.607Z,13.20
2018-05-14T23:05:43.315Z,13.20
2018-05-14T23:08:11.871Z,13.10
2018-05-14T23:10:39.684Z,13.10
2018-05-14T23:13:07.431Z,13.00
2018-05-14T23:15:35.133Z,13.10
2018-05-14T23:18:02.843Z,13.00
2018-05-14T23:20:30.607Z,13.00
2018-05-14T23:22:58.308Z,12.90
2018-05-14T23:25:26.066Z,12.90
2018-05-14T23:27:53.755Z,12.90
2018-05-14T23:30:21.515Z,12.90
2018-05-14T23:32:49.236Z,12.90
2018-05-14T23:35:16.944Z,12.80
2018-05-14T23:37:44.687Z,12.80
2018-05-14T23:40:13.147Z,12.70
2018-05-14T23:42:40.859Z,12.70
2018-05-14T23:45:08.712Z,12.70
2018-05-14T23:47:36.402Z,12.60
2018-05-14T23:50:04.150Z,12.60
2018-05-14T23:52:32.586Z,12.50
2018-05-14T23:55:00.286Z,12.50
2018-05-14T23:57:28.020Z,12.50
2018-05-14T23:59:55.754Z,12.50
